sensor_id;sensor_type;location;lat;lon;timestamp;P1;durP1;ratioP1;P2;durP2;ratioP2
18568;SDS011;14780;48.316;-1.050;2024-03-02T00:01:38;7.57;;;3.90;;
18568;SDS011;14780;48.316;-1.050;2024-03-02T00:04:23;6.30;;;3.65;;
18568;SDS011;14780;48.316;-1.050;2024-03-02T00:07:08;6.20;;;3.10;;
18568;SDS011;14780;48.316;-1.050;2024-03-02T00:09:53;6.18;;;3.40;;
18568;SDS011;14780;48.316;-1.050;2024-03-02T00:12:39;5.93;;;3.45;;
18568;SDS011;14780;48.316;-1.050;2024-03-02T00:18:48;5.30;;;3.40;;
18568;SDS011;14780;48.316;-1.050;2024-03-02T00:21:33;5.43;;;3.10;;
18568;SDS011;14780;48.316;-1.050;2024-03-02T00:27:16;6.72;;;3.10;;
18568;SDS011;14780;48.316;-1.050;2024-03-02T00:30:18;6.17;;;3.20;;
18568;SDS011;14780;48.316;-1.050;2024-03-02T00:33:30;5.28;;;2.90;;
18568;SDS011;14780;48.316;-1.050;2024-03-02T00:36:24;4.75;;;3.05;;
18568;SDS011;14780;48.316;-1.050;2024-03-02T00:39:11;5.10;;;3.10;;
18568;SDS011;14780;48.316;-1.050;2024-03-02T00:42:00;6.13;;;3.00;;
18568;SDS011;14780;48.316;-1.050;2024-03-02T00:44:45;6.40;;;2.80;;
18568;SDS011;14780;48.316;-1.050;2024-03-02T00:47:31;5.82;;;3.00;;
18568;SDS011;14780;48.316;-1.050;2024-03-02T00:50:16;7.47;;;3.03;;
18568;SDS011;14780;48.316;-1.050;2024-03-02T00:53:01;5.60;;;3.05;;
18568;SDS011;14780;48.316;-1.050;2024-03-02T00:55:47;5.05;;;2.88;;
18568;SDS011;14780;48.316;-1.050;2024-03-02T00:58:32;4.28;;;2.88;;
18568;SDS011;14780;48.316;-1.050;2024-03-02T01:01:17;4.63;;;2.70;;
18568;SDS011;14780;48.316;-1.050;2024-03-02T01:04:03;5.32;;;2.72;;
18568;SDS011;14780;48.316;-1.050;2024-03-02T01:06:48;4.95;;;2.85;;
18568;SDS011;14780;48.316;-1.050;2024-03-02T01:09:33;4.53;;;2.80;;
18568;SDS011;14780;48.316;-1.050;2024-03-02T01:12:18;5.68;;;2.70;;
18568;SDS011;14780;48.316;-1.050;2024-03-02T01:15:03;5.30;;;2.80;;
18568;SDS011;14780;48.316;-1.050;2024-03-02T01:17:51;5.32;;;2.70;;
18568;SDS011;14780;48.316;-1.050;2024-03-02T01:20:36;3.97;;;2.60;;
18568;SDS011;14780;48.316;-1.050;2024-03-02T01:23:20;4.78;;;2.78;;
18568;SDS011;14780;48.316;-1.050;2024-03-02T01:26:05;5.25;;;2.70;;
18568;SDS011;14780;48.316;-1.050;2024-03-02T01:28:51;4.63;;;2.58;;
18568;SDS011;14780;48.316;-1.050;2024-03-02T01:31:35;3.45;;;2.45;;
18568;SDS011;14780;48.316;-1.050;2024-03-02T01:34:20;4.10;;;2.63;;
18568;SDS011;14780;48.316;-1.050;2024-03-02T01:37:05;3.97;;;2.55;;
18568;SDS011;14780;48.316;-1.050;2024-03-02T01:39:50;5.15;;;2.70;;
18568;SDS011;14780;48.316;-1.050;2024-03-02T01:42:35;4.95;;;2.60;;
18568;SDS011;14780;48.316;-1.050;2024-03-02T01:45:21;5.13;;;2.40;;
18568;SDS011;14780;48.316;-1.050;2024-03-02T01:48:06;4.70;;;2.40;;
18568;SDS011;14780;48.316;-1.050;2024-03-02T01:50:51;4.05;;;2.40;;
18568;SDS011;14780;48.316;-1.050;2024-03-02T01:53:36;3.53;;;2.40;;
18568;SDS011;14780;48.316;-1.050;2024-03-02T01:56:21;4.55;;;2.50;;
18568;SDS011;14780;48.316;-1.050;2024-03-02T01:59:06;3.05;;;2.22;;
18568;SDS011;14780;48.316;-1.050;2024-03-02T02:01:51;3.53;;;2.33;;
18568;SDS011;14780;48.316;-1.050;2024-03-02T02:04:36;3.92;;;2.42;;
18568;SDS011;14780;48.316;-1.050;2024-03-02T02:07:20;6.85;;;2.53;;
18568;SDS011;14780;48.316;-1.050;2024-03-02T02:10:05;4.25;;;2.50;;
18568;SDS011;14780;48.316;-1.050;2024-03-02T02:12:50;3.53;;;2.27;;
18568;SDS011;14780;48.316;-1.050;2024-03-02T02:15:34;3.80;;;2.17;;
18568;SDS011;14780;48.316;-1.050;2024-03-02T02:18:20;4.63;;;2.30;;
18568;SDS011;14780;48.316;-1.050;2024-03-02T02:21:05;4.60;;;2.40;;
18568;SDS011;14780;48.316;-1.050;2024-03-02T02:23:49;3.47;;;2.20;;
18568;SDS011;14780;48.316;-1.050;2024-03-02T02:26:34;4.97;;;2.33;;
18568;SDS011;14780;48.316;-1.050;2024-03-02T02:29:18;4.47;;;2.33;;
18568;SDS011;14780;48.316;-1.050;2024-03-02T02:32:03;4.40;;;2.30;;
18568;SDS011;14780;48.316;-1.050;2024-03-02T02:34:52;3.05;;;2.22;;
18568;SDS011;14780;48.316;-1.050;2024-03-02T02:37:36;3.60;;;2.10;;
18568;SDS011;14780;48.316;-1.050;2024-03-02T02:40:22;4.28;;;2.38;;
18568;SDS011;14780;48.316;-1.050;2024-03-02T02:43:07;4.20;;;2.35;;
18568;SDS011;14780;48.316;-1.050;2024-03-02T02:45:51;4.30;;;2.20;;
18568;SDS011;14780;48.316;-1.050;2024-03-02T02:48:36;3.33;;;2.07;;
18568;SDS011;14780;48.316;-1.050;2024-03-02T02:51:20;3.60;;;2.42;;
18568;SDS011;14780;48.316;-1.050;2024-03-02T02:54:05;3.53;;;2.20;;
18568;SDS011;14780;48.316;-1.050;2024-03-02T02:56:50;4.88;;;2.20;;
18568;SDS011;14780;48.316;-1.050;2024-03-02T02:59:35;4.23;;;2.33;;
18568;SDS011;14780;48.316;-1.050;2024-03-02T03:02:20;3.75;;;2.17;;
18568;SDS011;14780;48.316;-1.050;2024-03-02T03:05:05;3.55;;;2.05;;
18568;SDS011;14780;48.316;-1.050;2024-03-02T03:07:51;3.33;;;2.20;;
18568;SDS011;14780;48.316;-1.050;2024-03-02T03:10:36;5.30;;;2.20;;
18568;SDS011;14780;48.316;-1.050;2024-03-02T03:13:21;4.03;;;2.20;;
18568;SDS011;14780;48.316;-1.050;2024-03-02T03:16:06;4.07;;;2.20;;
18568;SDS011;14780;48.316;-1.050;2024-03-02T03:18:51;3.20;;;2.10;;
18568;SDS011;14780;48.316;-1.050;2024-03-02T03:21:37;4.20;;;2.00;;
18568;SDS011;14780;48.316;-1.050;2024-03-02T03:24:22;3.80;;;2.10;;
18568;SDS011;14780;48.316;-1.050;2024-03-02T03:27:06;4.10;;;2.10;;
18568;SDS011;14780;48.316;-1.050;2024-03-02T03:29:51;3.25;;;2.17;;
18568;SDS011;14780;48.316;-1.050;2024-03-02T03:32:36;3.42;;;2.00;;
18568;SDS011;14780;48.316;-1.050;2024-03-02T03:35:21;4.47;;;1.85;;
18568;SDS011;14780;48.316;-1.050;2024-03-02T03:38:06;3.60;;;2.13;;
18568;SDS011;14780;48.316;-1.050;2024-03-02T03:40:50;4.47;;;2.00;;
18568;SDS011;14780;48.316;-1.050;2024-03-02T03:43:35;3.00;;;1.98;;
18568;SDS011;14780;48.316;-1.050;2024-03-02T03:46:21;2.72;;;1.98;;
18568;SDS011;14780;48.316;-1.050;2024-03-02T03:49:05;3.65;;;1.90;;
18568;SDS011;14780;48.316;-1.050;2024-03-02T03:51:51;3.35;;;2.10;;
18568;SDS011;14780;48.316;-1.050;2024-03-02T03:54:35;2.03;;;1.80;;
18568;SDS011;14780;48.316;-1.050;2024-03-02T03:57:22;2.90;;;1.90;;
18568;SDS011;14780;48.316;-1.050;2024-03-02T04:00:06;3.40;;;1.95;;
18568;SDS011;14780;48.316;-1.050;2024-03-02T04:02:53;3.15;;;1.75;;
18568;SDS011;14780;48.316;-1.050;2024-03-02T04:05:38;3.17;;;1.90;;
18568;SDS011;14780;48.316;-1.050;2024-03-02T04:08:22;3.03;;;1.80;;
18568;SDS011;14780;48.316;-1.050;2024-03-02T04:11:07;3.08;;;1.80;;
18568;SDS011;14780;48.316;-1.050;2024-03-02T04:13:52;2.45;;;1.75;;
18568;SDS011;14780;48.316;-1.050;2024-03-02T04:16:36;2.72;;;1.80;;
18568;SDS011;14780;48.316;-1.050;2024-03-02T04:19:21;2.25;;;1.70;;
18568;SDS011;14780;48.316;-1.050;2024-03-02T04:22:05;2.45;;;1.63;;
18568;SDS011;14780;48.316;-1.050;2024-03-02T04:24:50;3.50;;;1.60;;
18568;SDS011;14780;48.316;-1.050;2024-03-02T04:27:36;2.40;;;1.75;;
18568;SDS011;14780;48.316;-1.050;2024-03-02T04:30:20;3.53;;;1.90;;
18568;SDS011;14780;48.316;-1.050;2024-03-02T04:33:05;2.80;;;1.90;;
18568;SDS011;14780;48.316;-1.050;2024-03-02T04:35:51;2.60;;;1.77;;
18568;SDS011;14780;48.316;-1.050;2024-03-02T04:38:36;2.33;;;1.70;;
18568;SDS011;14780;48.316;-1.050;2024-03-02T04:41:21;2.70;;;2.05;;
18568;SDS011;14780;48.316;-1.050;2024-03-02T04:44:06;3.10;;;1.67;;
18568;SDS011;14780;48.316;-1.050;2024-03-02T04:46:51;2.93;;;1.67;;
18568;SDS011;14780;48.316;-1.050;2024-03-02T04:49:36;2.70;;;1.70;;
18568;SDS011;14780;48.316;-1.050;2024-03-02T04:52:20;2.70;;;1.83;;
18568;SDS011;14780;48.316;-1.050;2024-03-02T04:55:05;2.20;;;1.60;;
18568;SDS011;14780;48.316;-1.050;2024-03-02T04:57:53;3.75;;;1.83;;
18568;SDS011;14780;48.316;-1.050;2024-03-02T05:00:40;1.77;;;1.47;;
18568;SDS011;14780;48.316;-1.050;2024-03-02T05:03:26;2.67;;;1.65;;
18568;SDS011;14780;48.316;-1.050;2024-03-02T05:06:11;2.33;;;1.70;;
18568;SDS011;14780;48.316;-1.050;2024-03-02T05:08:55;2.30;;;1.60;;
18568;SDS011;14780;48.316;-1.050;2024-03-02T05:11:40;2.78;;;1.80;;
18568;SDS011;14780;48.316;-1.050;2024-03-02T05:14:28;2.67;;;1.70;;
18568;SDS011;14780;48.316;-1.050;2024-03-02T05:17:13;2.77;;;1.80;;
18568;SDS011;14780;48.316;-1.050;2024-03-02T05:19:57;3.22;;;1.75;;
18568;SDS011;14780;48.316;-1.050;2024-03-02T05:22:42;6.13;;;1.90;;
18568;SDS011;14780;48.316;-1.050;2024-03-02T05:25:27;2.40;;;1.70;;
18568;SDS011;14780;48.316;-1.050;2024-03-02T05:28:12;2.33;;;1.67;;
18568;SDS011;14780;48.316;-1.050;2024-03-02T05:30:57;3.57;;;1.47;;
18568;SDS011;14780;48.316;-1.050;2024-03-02T05:33:42;2.92;;;1.80;;
18568;SDS011;14780;48.316;-1.050;2024-03-02T05:36:27;2.33;;;1.70;;
18568;SDS011;14780;48.316;-1.050;2024-03-02T05:39:12;2.30;;;1.63;;
18568;SDS011;14780;48.316;-1.050;2024-03-02T05:41:57;3.03;;;1.70;;
18568;SDS011;14780;48.316;-1.050;2024-03-02T05:44:42;2.33;;;1.80;;
18568;SDS011;14780;48.316;-1.050;2024-03-02T05:47:26;3.35;;;1.80;;
18568;SDS011;14780;48.316;-1.050;2024-03-02T05:50:11;3.28;;;2.00;;
18568;SDS011;14780;48.316;-1.050;2024-03-02T05:52:56;2.90;;;1.70;;
18568;SDS011;14780;48.316;-1.050;2024-03-02T05:55:42;2.80;;;1.80;;
18568;SDS011;14780;48.316;-1.050;2024-03-02T05:58:29;2.53;;;1.70;;
18568;SDS011;14780;48.316;-1.050;2024-03-02T06:01:36;3.13;;;1.73;;
18568;SDS011;14780;48.316;-1.050;2024-03-02T06:04:26;2.50;;;1.63;;
18568;SDS011;14780;48.316;-1.050;2024-03-02T06:07:11;3.05;;;1.90;;
18568;SDS011;14780;48.316;-1.050;2024-03-02T06:09:55;2.58;;;1.80;;
18568;SDS011;14780;48.316;-1.050;2024-03-02T06:12:40;3.40;;;1.90;;
18568;SDS011;14780;48.316;-1.050;2024-03-02T06:15:25;3.67;;;1.90;;
18568;SDS011;14780;48.316;-1.050;2024-03-02T06:18:09;3.20;;;1.73;;
18568;SDS011;14780;48.316;-1.050;2024-03-02T06:20:54;2.00;;;1.70;;
18568;SDS011;14780;48.316;-1.050;2024-03-02T06:23:38;2.10;;;1.70;;
18568;SDS011;14780;48.316;-1.050;2024-03-02T06:26:23;2.88;;;1.90;;
18568;SDS011;14780;48.316;-1.050;2024-03-02T06:29:08;3.83;;;1.80;;
18568;SDS011;14780;48.316;-1.050;2024-03-02T06:31:52;2.60;;;1.60;;
18568;SDS011;14780;48.316;-1.050;2024-03-02T06:34:37;3.15;;;1.92;;
18568;SDS011;14780;48.316;-1.050;2024-03-02T06:37:21;3.28;;;1.60;;
18568;SDS011;14780;48.316;-1.050;2024-03-02T06:40:06;2.40;;;1.80;;
18568;SDS011;14780;48.316;-1.050;2024-03-02T06:42:52;4.17;;;1.80;;
18568;SDS011;14780;48.316;-1.050;2024-03-02T06:45:36;3.13;;;1.73;;
18568;SDS011;14780;48.316;-1.050;2024-03-02T06:48:21;3.13;;;1.70;;
18568;SDS011;14780;48.316;-1.050;2024-03-02T06:51:07;2.42;;;1.50;;
18568;SDS011;14780;48.316;-1.050;2024-03-02T06:53:51;1.95;;;1.60;;
18568;SDS011;14780;48.316;-1.050;2024-03-02T06:56:36;3.47;;;1.90;;
18568;SDS011;14780;48.316;-1.050;2024-03-02T06:59:22;4.13;;;1.63;;
18568;SDS011;14780;48.316;-1.050;2024-03-02T07:02:08;2.45;;;1.80;;
18568;SDS011;14780;48.316;-1.050;2024-03-02T07:04:53;4.28;;;1.95;;
18568;SDS011;14780;48.316;-1.050;2024-03-02T07:07:38;3.10;;;1.67;;
18568;SDS011;14780;48.316;-1.050;2024-03-02T07:10:22;4.22;;;1.80;;
18568;SDS011;14780;48.316;-1.050;2024-03-02T07:13:08;4.55;;;1.92;;
18568;SDS011;14780;48.316;-1.050;2024-03-02T07:15:53;4.95;;;1.90;;
18568;SDS011;14780;48.316;-1.050;2024-03-02T07:18:46;2.55;;;1.60;;
18568;SDS011;14780;48.316;-1.050;2024-03-02T07:21:35;2.42;;;1.80;;
18568;SDS011;14780;48.316;-1.050;2024-03-02T07:24:20;3.38;;;2.10;;
18568;SDS011;14780;48.316;-1.050;2024-03-02T07:27:05;3.47;;;1.90;;
18568;SDS011;14780;48.316;-1.050;2024-03-02T07:29:50;2.17;;;1.70;;
18568;SDS011;14780;48.316;-1.050;2024-03-02T07:32:34;3.53;;;1.70;;
18568;SDS011;14780;48.316;-1.050;2024-03-02T07:35:19;3.10;;;1.77;;
18568;SDS011;14780;48.316;-1.050;2024-03-02T07:38:05;2.67;;;1.73;;
18568;SDS011;14780;48.316;-1.050;2024-03-02T07:40:50;3.65;;;1.77;;
18568;SDS011;14780;48.316;-1.050;2024-03-02T07:43:36;2.20;;;1.60;;
18568;SDS011;14780;48.316;-1.050;2024-03-02T07:46:20;2.65;;;1.88;;
18568;SDS011;14780;48.316;-1.050;2024-03-02T07:49:05;3.83;;;1.70;;
18568;SDS011;14780;48.316;-1.050;2024-03-02T07:51:50;1.85;;;1.60;;
18568;SDS011;14780;48.316;-1.050;2024-03-02T07:54:35;2.45;;;1.75;;
18568;SDS011;14780;48.316;-1.050;2024-03-02T07:57:19;3.92;;;1.88;;
18568;SDS011;14780;48.316;-1.050;2024-03-02T08:00:05;2.43;;;1.60;;
18568;SDS011;14780;48.316;-1.050;2024-03-02T08:02:50;2.67;;;1.70;;
18568;SDS011;14780;48.316;-1.050;2024-03-02T08:05:35;1.75;;;1.52;;
18568;SDS011;14780;48.316;-1.050;2024-03-02T08:08:20;2.45;;;1.58;;
18568;SDS011;14780;48.316;-1.050;2024-03-02T08:11:05;2.65;;;1.30;;
18568;SDS011;14780;48.316;-1.050;2024-03-02T08:13:50;2.95;;;1.90;;
18568;SDS011;14780;48.316;-1.050;2024-03-02T08:16:36;3.47;;;1.93;;
18568;SDS011;14780;48.316;-1.050;2024-03-02T08:19:20;1.83;;;1.50;;
18568;SDS011;14780;48.316;-1.050;2024-03-02T08:22:05;2.53;;;1.80;;
18568;SDS011;14780;48.316;-1.050;2024-03-02T08:24:50;3.30;;;1.80;;
18568;SDS011;14780;48.316;-1.050;2024-03-02T08:27:36;2.87;;;1.80;;
18568;SDS011;14780;48.316;-1.050;2024-03-02T08:30:22;3.03;;;1.77;;
18568;SDS011;14780;48.316;-1.050;2024-03-02T08:33:07;3.65;;;1.90;;
18568;SDS011;14780;48.316;-1.050;2024-03-02T08:35:52;4.18;;;1.88;;
18568;SDS011;14780;48.316;-1.050;2024-03-02T08:38:37;3.30;;;1.63;;
18568;SDS011;14780;48.316;-1.050;2024-03-02T08:41:22;4.55;;;1.90;;
18568;SDS011;14780;48.316;-1.050;2024-03-02T08:44:07;4.32;;;1.55;;
18568;SDS011;14780;48.316;-1.050;2024-03-02T08:46:51;3.13;;;1.80;;
18568;SDS011;14780;48.316;-1.050;2024-03-02T08:49:36;2.67;;;1.67;;
18568;SDS011;14780;48.316;-1.050;2024-03-02T08:52:21;4.05;;;2.05;;
18568;SDS011;14780;48.316;-1.050;2024-03-02T08:55:06;3.80;;;1.95;;
18568;SDS011;14780;48.316;-1.050;2024-03-02T08:57:50;5.93;;;1.97;;
18568;SDS011;14780;48.316;-1.050;2024-03-02T09:00:35;3.45;;;2.20;;
18568;SDS011;14780;48.316;-1.050;2024-03-02T09:03:19;4.72;;;2.00;;
18568;SDS011;14780;48.316;-1.050;2024-03-02T09:06:04;3.28;;;1.73;;
18568;SDS011;14780;48.316;-1.050;2024-03-02T09:08:49;3.93;;;1.90;;
18568;SDS011;14780;48.316;-1.050;2024-03-02T09:11:35;4.67;;;1.97;;
18568;SDS011;14780;48.316;-1.050;2024-03-02T09:14:20;3.28;;;1.90;;
18568;SDS011;14780;48.316;-1.050;2024-03-02T09:17:05;3.22;;;1.92;;
18568;SDS011;14780;48.316;-1.050;2024-03-02T09:19:50;2.08;;;1.67;;
18568;SDS011;14780;48.316;-1.050;2024-03-02T09:22:37;2.73;;;1.80;;
18568;SDS011;14780;48.316;-1.050;2024-03-02T09:25:22;5.60;;;1.80;;
18568;SDS011;14780;48.316;-1.050;2024-03-02T09:28:07;3.45;;;1.90;;
18568;SDS011;14780;48.316;-1.050;2024-03-02T09:30:52;5.25;;;2.00;;
18568;SDS011;14780;48.316;-1.050;2024-03-02T09:33:36;5.63;;;2.20;;
18568;SDS011;14780;48.316;-1.050;2024-03-02T09:36:22;4.32;;;1.77;;
18568;SDS011;14780;48.316;-1.050;2024-03-02T09:39:07;3.57;;;2.03;;
18568;SDS011;14780;48.316;-1.050;2024-03-02T09:41:56;4.70;;;2.00;;
18568;SDS011;14780;48.316;-1.050;2024-03-02T09:44:42;5.97;;;2.40;;
18568;SDS011;14780;48.316;-1.050;2024-03-02T09:47:27;4.60;;;2.00;;
18568;SDS011;14780;48.316;-1.050;2024-03-02T09:50:12;5.57;;;2.10;;
18568;SDS011;14780;48.316;-1.050;2024-03-02T09:52:57;4.45;;;2.20;;
18568;SDS011;14780;48.316;-1.050;2024-03-02T09:55:46;5.03;;;2.20;;
18568;SDS011;14780;48.316;-1.050;2024-03-02T09:58:31;3.20;;;1.98;;
18568;SDS011;14780;48.316;-1.050;2024-03-02T10:01:16;5.55;;;1.98;;
18568;SDS011;14780;48.316;-1.050;2024-03-02T10:04:00;4.72;;;2.15;;
18568;SDS011;14780;48.316;-1.050;2024-03-02T10:06:49;2.95;;;2.00;;
18568;SDS011;14780;48.316;-1.050;2024-03-02T10:09:34;2.47;;;1.80;;
18568;SDS011;14780;48.316;-1.050;2024-03-02T10:12:18;3.13;;;2.00;;
18568;SDS011;14780;48.316;-1.050;2024-03-02T10:15:03;4.55;;;1.88;;
18568;SDS011;14780;48.316;-1.050;2024-03-02T10:17:49;5.55;;;1.90;;
18568;SDS011;14780;48.316;-1.050;2024-03-02T10:20:33;3.22;;;1.90;;
18568;SDS011;14780;48.316;-1.050;2024-03-02T10:23:18;3.42;;;1.67;;
18568;SDS011;14780;48.316;-1.050;2024-03-02T10:26:09;4.05;;;2.00;;
18568;SDS011;14780;48.316;-1.050;2024-03-02T10:29:02;2.63;;;1.88;;
18568;SDS011;14780;48.316;-1.050;2024-03-02T10:31:46;2.83;;;1.80;;
18568;SDS011;14780;48.316;-1.050;2024-03-02T10:34:31;2.38;;;1.77;;
18568;SDS011;14780;48.316;-1.050;2024-03-02T10:37:16;3.03;;;2.03;;
18568;SDS011;14780;48.316;-1.050;2024-03-02T10:40:04;3.75;;;1.73;;
18568;SDS011;14780;48.316;-1.050;2024-03-02T10:42:51;2.40;;;1.70;;
18568;SDS011;14780;48.316;-1.050;2024-03-02T10:45:37;3.20;;;1.67;;
18568;SDS011;14780;48.316;-1.050;2024-03-02T10:48:22;1.77;;;1.53;;
18568;SDS011;14780;48.316;-1.050;2024-03-02T10:51:09;3.03;;;1.77;;
18568;SDS011;14780;48.316;-1.050;2024-03-02T10:53:54;2.63;;;1.90;;
18568;SDS011;14780;48.316;-1.050;2024-03-02T10:56:39;3.83;;;1.90;;
18568;SDS011;14780;48.316;-1.050;2024-03-02T10:59:32;3.58;;;1.92;;
18568;SDS011;14780;48.316;-1.050;2024-03-02T11:02:19;1.83;;;1.52;;
18568;SDS011;14780;48.316;-1.050;2024-03-02T11:05:07;2.78;;;1.80;;
18568;SDS011;14780;48.316;-1.050;2024-03-02T11:08:00;2.15;;;1.40;;
18568;SDS011;14780;48.316;-1.050;2024-03-02T11:10:58;5.10;;;1.60;;
18568;SDS011;14780;48.316;-1.050;2024-03-02T11:13:51;2.45;;;1.70;;
18568;SDS011;14780;48.316;-1.050;2024-03-02T11:16:40;2.50;;;1.67;;
18568;SDS011;14780;48.316;-1.050;2024-03-02T11:19:25;2.20;;;1.67;;
18568;SDS011;14780;48.316;-1.050;2024-03-02T11:22:10;3.80;;;1.60;;
18568;SDS011;14780;48.316;-1.050;2024-03-02T11:24:56;3.10;;;1.88;;
18568;SDS011;14780;48.316;-1.050;2024-03-02T11:33:22;2.25;;;1.75;;
18568;SDS011;14780;48.316;-1.050;2024-03-02T11:36:09;1.73;;;1.50;;
18568;SDS011;14780;48.316;-1.050;2024-03-02T11:38:53;2.78;;;1.77;;
18568;SDS011;14780;48.316;-1.050;2024-03-02T11:41:39;4.10;;;2.10;;
18568;SDS011;14780;48.316;-1.050;2024-03-02T11:44:30;2.60;;;1.85;;
18568;SDS011;14780;48.316;-1.050;2024-03-02T11:47:17;3.30;;;1.90;;
18568;SDS011;14780;48.316;-1.050;2024-03-02T11:50:01;2.17;;;1.67;;
18568;SDS011;14780;48.316;-1.050;2024-03-02T11:52:50;2.50;;;1.67;;
18568;SDS011;14780;48.316;-1.050;2024-03-02T11:55:35;2.57;;;1.60;;
18568;SDS011;14780;48.316;-1.050;2024-03-02T11:58:21;3.28;;;1.75;;
18568;SDS011;14780;48.316;-1.050;2024-03-02T12:01:08;4.57;;;1.60;;
18568;SDS011;14780;48.316;-1.050;2024-03-02T12:03:54;3.08;;;1.67;;
18568;SDS011;14780;48.316;-1.050;2024-03-02T12:06:39;2.57;;;1.67;;
18568;SDS011;14780;48.316;-1.050;2024-03-02T12:09:28;3.97;;;1.90;;
18568;SDS011;14780;48.316;-1.050;2024-03-02T12:12:13;3.78;;;2.03;;
18568;SDS011;14780;48.316;-1.050;2024-03-02T12:15:02;4.00;;;2.25;;
18568;SDS011;14780;48.316;-1.050;2024-03-02T12:17:47;4.90;;;1.93;;
18568;SDS011;14780;48.316;-1.050;2024-03-02T12:20:32;5.28;;;2.22;;
18568;SDS011;14780;48.316;-1.050;2024-03-02T12:23:17;4.07;;;1.90;;
18568;SDS011;14780;48.316;-1.050;2024-03-02T12:26:03;5.07;;;2.08;;
18568;SDS011;14780;48.316;-1.050;2024-03-02T12:28:48;5.07;;;2.17;;
18568;SDS011;14780;48.316;-1.050;2024-03-02T12:31:34;3.80;;;1.95;;
18568;SDS011;14780;48.316;-1.050;2024-03-02T12:34:19;4.20;;;2.25;;
18568;SDS011;14780;48.316;-1.050;2024-03-02T12:37:04;5.20;;;2.00;;
18568;SDS011;14780;48.316;-1.050;2024-03-02T12:39:49;5.97;;;2.17;;
18568;SDS011;14780;48.316;-1.050;2024-03-02T12:42:33;5.75;;;2.25;;
18568;SDS011;14780;48.316;-1.050;2024-03-02T12:45:20;5.13;;;2.40;;
18568;SDS011;14780;48.316;-1.050;2024-03-02T12:48:07;7.53;;;4.40;;
18568;SDS011;14780;48.316;-1.050;2024-03-02T12:50:52;12.82;;;7.90;;
18568;SDS011;14780;48.316;-1.050;2024-03-02T12:53:37;11.75;;;8.13;;
18568;SDS011;14780;48.316;-1.050;2024-03-02T12:56:22;12.65;;;8.23;;
18568;SDS011;14780;48.316;-1.050;2024-03-02T12:59:08;12.65;;;8.40;;
18568;SDS011;14780;48.316;-1.050;2024-03-02T13:01:55;13.70;;;8.10;;
18568;SDS011;14780;48.316;-1.050;2024-03-02T13:04:41;12.30;;;7.50;;
18568;SDS011;14780;48.316;-1.050;2024-03-02T13:07:26;12.13;;;7.63;;
18568;SDS011;14780;48.316;-1.050;2024-03-02T13:10:11;13.45;;;7.75;;
18568;SDS011;14780;48.316;-1.050;2024-03-02T13:12:57;11.32;;;7.18;;
18568;SDS011;14780;48.316;-1.050;2024-03-02T13:15:42;11.32;;;6.88;;
18568;SDS011;14780;48.316;-1.050;2024-03-02T13:18:30;11.30;;;6.27;;
18568;SDS011;14780;48.316;-1.050;2024-03-02T13:21:16;11.87;;;6.53;;
18568;SDS011;14780;48.316;-1.050;2024-03-02T13:24:02;11.60;;;6.10;;
18568;SDS011;14780;48.316;-1.050;2024-03-02T13:26:47;9.77;;;5.97;;
18568;SDS011;14780;48.316;-1.050;2024-03-02T13:29:32;9.15;;;5.50;;
18568;SDS011;14780;48.316;-1.050;2024-03-02T13:32:17;9.05;;;5.43;;
18568;SDS011;14780;48.316;-1.050;2024-03-02T13:35:07;9.38;;;5.10;;
18568;SDS011;14780;48.316;-1.050;2024-03-02T13:37:54;6.95;;;5.07;;
18568;SDS011;14780;48.316;-1.050;2024-03-02T13:40:39;6.53;;;4.57;;
18568;SDS011;14780;48.316;-1.050;2024-03-02T13:43:24;7.80;;;4.83;;
18568;SDS011;14780;48.316;-1.050;2024-03-02T13:46:10;7.82;;;4.85;;
18568;SDS011;14780;48.316;-1.050;2024-03-02T13:48:55;7.87;;;4.60;;
18568;SDS011;14780;48.316;-1.050;2024-03-02T13:51:40;6.47;;;4.38;;
18568;SDS011;14780;48.316;-1.050;2024-03-02T13:54:25;6.78;;;4.30;;
18568;SDS011;14780;48.316;-1.050;2024-03-02T13:57:10;6.83;;;4.30;;
18568;SDS011;14780;48.316;-1.050;2024-03-02T13:59:55;6.40;;;4.18;;
18568;SDS011;14780;48.316;-1.050;2024-03-02T14:02:40;8.17;;;4.30;;
18568;SDS011;14780;48.316;-1.050;2024-03-02T14:05:25;6.80;;;4.30;;
18568;SDS011;14780;48.316;-1.050;2024-03-02T14:08:09;6.43;;;4.20;;
18568;SDS011;14780;48.316;-1.050;2024-03-02T14:10:54;7.47;;;3.92;;
18568;SDS011;14780;48.316;-1.050;2024-03-02T14:13:41;6.57;;;3.77;;
18568;SDS011;14780;48.316;-1.050;2024-03-02T14:16:28;5.32;;;3.60;;
18568;SDS011;14780;48.316;-1.050;2024-03-02T14:19:13;6.83;;;3.93;;
18568;SDS011;14780;48.316;-1.050;2024-03-02T14:21:58;6.07;;;3.90;;
18568;SDS011;14780;48.316;-1.050;2024-03-02T14:24:43;4.75;;;3.30;;
18568;SDS011;14780;48.316;-1.050;2024-03-02T14:27:28;5.05;;;3.60;;
18568;SDS011;14780;48.316;-1.050;2024-03-02T14:30:13;5.88;;;3.70;;
18568;SDS011;14780;48.316;-1.050;2024-03-02T14:32:58;4.93;;;3.50;;
18568;SDS011;14780;48.316;-1.050;2024-03-02T14:35:44;6.43;;;3.45;;
18568;SDS011;14780;48.316;-1.050;2024-03-02T14:38:29;5.97;;;3.53;;
18568;SDS011;14780;48.316;-1.050;2024-03-02T14:41:14;4.55;;;3.30;;
18568;SDS011;14780;48.316;-1.050;2024-03-02T14:43:59;6.80;;;3.42;;
18568;SDS011;14780;48.316;-1.050;2024-03-02T14:46:47;4.97;;;3.33;;
18568;SDS011;14780;48.316;-1.050;2024-03-02T14:49:32;5.80;;;3.30;;
18568;SDS011;14780;48.316;-1.050;2024-03-02T14:52:20;5.13;;;2.92;;
18568;SDS011;14780;48.316;-1.050;2024-03-02T14:55:05;5.45;;;3.40;;
18568;SDS011;14780;48.316;-1.050;2024-03-02T14:57:51;5.25;;;3.17;;
18568;SDS011;14780;48.316;-1.050;2024-03-02T15:00:35;4.80;;;2.95;;
18568;SDS011;14780;48.316;-1.050;2024-03-02T15:03:20;5.30;;;2.83;;
18568;SDS011;14780;48.316;-1.050;2024-03-02T15:06:05;5.68;;;3.03;;
18568;SDS011;14780;48.316;-1.050;2024-03-02T15:08:51;5.45;;;2.95;;
18568;SDS011;14780;48.316;-1.050;2024-03-02T15:11:38;4.78;;;3.00;;
18568;SDS011;14780;48.316;-1.050;2024-03-02T15:14:23;5.13;;;2.90;;
18568;SDS011;14780;48.316;-1.050;2024-03-02T15:17:08;5.03;;;3.10;;
18568;SDS011;14780;48.316;-1.050;2024-03-02T15:19:52;4.55;;;2.90;;
18568;SDS011;14780;48.316;-1.050;2024-03-02T15:22:37;4.63;;;2.70;;
18568;SDS011;14780;48.316;-1.050;2024-03-02T15:25:21;4.03;;;2.50;;
18568;SDS011;14780;48.316;-1.050;2024-03-02T15:28:06;4.70;;;2.78;;
18568;SDS011;14780;48.316;-1.050;2024-03-02T15:30:51;3.03;;;2.33;;
18568;SDS011;14780;48.316;-1.050;2024-03-02T15:33:35;5.25;;;2.70;;
18568;SDS011;14780;48.316;-1.050;2024-03-02T15:36:20;5.63;;;2.47;;
18568;SDS011;14780;48.316;-1.050;2024-03-02T15:39:05;4.45;;;2.80;;
18568;SDS011;14780;48.316;-1.050;2024-03-02T15:41:52;5.45;;;2.65;;
18568;SDS011;14780;48.316;-1.050;2024-03-02T15:44:36;4.00;;;2.50;;
18568;SDS011;14780;48.316;-1.050;2024-03-02T15:47:21;6.05;;;2.58;;
18568;SDS011;14780;48.316;-1.050;2024-03-02T15:50:06;4.03;;;2.50;;
18568;SDS011;14780;48.316;-1.050;2024-03-02T15:52:51;3.35;;;2.40;;
18568;SDS011;14780;48.316;-1.050;2024-03-02T15:55:39;4.72;;;2.40;;
18568;SDS011;14780;48.316;-1.050;2024-03-02T15:58:23;5.78;;;2.72;;
18568;SDS011;14780;48.316;-1.050;2024-03-02T16:01:08;3.20;;;2.25;;
18568;SDS011;14780;48.316;-1.050;2024-03-02T16:03:52;6.32;;;2.92;;
18568;SDS011;14780;48.316;-1.050;2024-03-02T16:06:37;4.68;;;2.80;;
18568;SDS011;14780;48.316;-1.050;2024-03-02T16:09:22;3.85;;;2.80;;
18568;SDS011;14780;48.316;-1.050;2024-03-02T16:12:06;6.05;;;2.85;;
18568;SDS011;14780;48.316;-1.050;2024-03-02T16:14:51;5.43;;;3.10;;
18568;SDS011;14780;48.316;-1.050;2024-03-02T16:17:36;4.05;;;2.70;;
18568;SDS011;14780;48.316;-1.050;2024-03-02T16:20:20;5.10;;;3.10;;
18568;SDS011;14780;48.316;-1.050;2024-03-02T16:23:05;8.40;;;5.55;;
18568;SDS011;14780;48.316;-1.050;2024-03-02T16:25:50;17.00;;;7.32;;
18568;SDS011;14780;48.316;-1.050;2024-03-02T16:28:35;8.95;;;5.25;;
18568;SDS011;14780;48.316;-1.050;2024-03-02T16:31:19;10.63;;;6.00;;
18568;SDS011;14780;48.316;-1.050;2024-03-02T16:34:04;10.75;;;6.53;;